Time,TemperatureF,DewpointF,PressureIn,WindDirection,WindDirectionDegrees,WindSpeedMPH,WindSpeedGustMPH,Humidity,HourlyPrecipIn,Conditions,Clouds,dailyrainin,SoftwareType,DateUTC
2013-05-28 00:01:00,49.0,46.0,-100.00,SW,225,0.0,1.0,89,-99.99,,,-99.99,,2013-05-28 07:01:00,
2013-05-28 00:11:00,49.0,46.0,-100.00,SW,225,0.0,1.0,89,-99.99,,,-99.99,,2013-05-28 07:11:00,
2013-05-28 00:21:00,49.0,46.0,-100.00,North,-999,0.0,0.0,90,-99.99,,,-99.99,,2013-05-28 07:21:00,
2013-05-28 00:32:00,49.0,46.0,-100.00,North,-999,0.0,0.0,90,-99.99,,,-99.99,,2013-05-28 07:32:00,
2013-05-28 00:42:00,49.0,46.0,-100.00,North,-999,0.0,0.0,90,-99.99,,,-99.99,,2013-05-28 07:42:00,
2013-05-28 00:52:00,49.0,46.0,-100.00,SE,135,1.0,1.0,90,-99.99,,,-99.99,,2013-05-28 07:52:00,
2013-05-28 01:01:00,49.0,46.0,-100.00,North,-999,0.0,0.0,90,-99.99,,,-99.99,,2013-05-28 08:01:00,
2013-05-28 01:11:00,49.0,46.0,-100.00,North,-999,0.0,0.0,90,-99.99,,,-99.99,,2013-05-28 08:11:00,
2013-05-28 01:21:00,49.0,46.0,-100.00,North,-999,0.0,0.0,91,-99.99,,,-99.99,,2013-05-28 08:21:00,
2013-05-28 01:32:00,49.0,46.0,-100.00,North,-999,0.0,0.0,91,-99.99,,,-99.99,,2013-05-28 08:32:00,
2013-05-28 01:42:00,49.0,46.0,-100.00,North,-999,0.0,0.0,91,-99.99,,,-99.99,,2013-05-28 08:42:00,
2013-05-28 01:52:00,49.0,46.0,-100.00,North,-999,0.0,0.0,91,-99.99,,,-99.99,,2013-05-28 08:52:00,
2013-05-28 02:01:00,49.0,46.0,-100.00,North,-999,0.0,0.0,91,-99.99,,,-99.99,,2013-05-28 09:01:00,
2013-05-28 02:11:00,49.0,46.0,-100.00,North,-999,0.0,0.0,91,-99.99,,,-99.99,,2013-05-28 09:11:00,
2013-05-28 02:21:00,49.0,46.0,-100.00,SW,225,4.0,6.0,91,-99.99,,,-99.99,,2013-05-28 09:21:00,
2013-05-28 02:33:00,49.0,46.0,-100.00,SW,225,2.0,4.0,91,-99.99,,,-99.99,,2013-05-28 09:33:00,
2013-05-28 02:42:00,49.0,46.0,-100.00,SW,225,2.0,4.0,91,-99.99,,,-99.99,,2013-05-28 09:42:00,
2013-05-28 02:54:00,49.0,46.0,-100.00,NW,315,2.0,3.0,91,-99.99,,,-99.99,,2013-05-28 09:54:00,
2013-05-28 03:03:00,48.0,46.0,-100.00,SW,225,2.0,3.0,91,-99.99,,,-99.99,,2013-05-28 10:03:00,
2013-05-28 03:12:00,48.0,46.0,-100.00,SW,225,2.0,3.0,91,-99.99,,,-99.99,,2013-05-28 10:12:00,
2013-05-28 03:22:00,49.0,46.0,-100.00,North,-999,0.0,0.0,91,-99.99,,,-99.99,,2013-05-28 10:22:00,
2013-05-28 03:32:00,48.0,46.0,-100.00,North,-999,0.0,0.0,91,-99.99,,,-99.99,,2013-05-28 10:32:00,
2013-05-28 03:42:00,48.0,46.0,-100.00,North,-999,0.0,0.0,91,-99.99,,,-99.99,,2013-05-28 10:42:00,
2013-05-28 03:53:00,49.0,46.0,-100.00,North,-999,0.0,0.0,91,-99.99,,,-99.99,,2013-05-28 10:53:00,
2013-05-28 04:02:00,48.0,46.0,-100.00,North,-999,0.0,0.0,91,-99.99,,,-99.99,,2013-05-28 11:02:00,
2013-05-28 04:11:00,48.0,46.0,-100.00,North,-999,0.0,0.0,91,-99.99,,,-99.99,,2013-05-28 11:11:00,
2013-05-28 04:22:00,48.0,46.0,-100.00,North,-999,0.0,0.0,92,-99.99,,,-99.99,,2013-05-28 11:22:00,
2013-05-28 04:32:00,48.0,46.0,-100.00,North,-999,0.0,0.0,92,-99.99,,,-99.99,,2013-05-28 11:32:00,
2013-05-28 04:41:00,48.0,46.0,-100.00,North,-999,0.0,0.0,92,-99.99,,,-99.99,,2013-05-28 11:41:00,
2013-05-28 04:52:00,48.0,46.0,-100.00,North,-999,0.0,0.0,92,-99.99,,,-99.99,,2013-05-28 11:52:00,
2013-05-28 05:01:00,48.0,46.0,-100.00,North,-999,0.0,0.0,92,-99.99,,,-99.99,,2013-05-28 12:01:00,
2013-05-28 05:11:00,48.0,46.0,-100.00,North,-999,0.0,0.0,92,-99.99,,,-99.99,,2013-05-28 12:11:00,
2013-05-28 05:21:00,48.0,46.0,-100.00,North,-999,0.0,0.0,92,-99.99,,,-99.99,,2013-05-28 12:21:00,
2013-05-28 05:31:00,48.0,46.0,-100.00,North,-999,0.0,0.0,92,-99.99,,,-99.99,,2013-05-28 12:31:00,
2013-05-28 05:42:00,48.0,46.0,-100.00,North,-999,0.0,0.0,92,-99.99,,,-99.99,,2013-05-28 12:42:00,
2013-05-28 05:52:00,48.0,46.0,-100.00,North,-999,0.0,0.0,92,-99.99,,,-99.99,,2013-05-28 12:52:00,
2013-05-28 06:01:00,48.0,46.0,-100.00,North,-999,0.0,0.0,92,-99.99,,,-99.99,,2013-05-28 13:01:00,
2013-05-28 06:11:00,48.0,46.0,-100.00,North,-999,0.0,0.0,92,-99.99,,,-99.99,,2013-05-28 13:11:00,
2013-05-28 06:21:00,48.0,46.0,-100.00,West,270,1.0,1.0,92,-99.99,,,-99.99,,2013-05-28 13:21:00,
2013-05-28 06:32:00,48.0,46.0,-100.00,West,270,1.0,3.0,92,-99.99,,,-99.99,,2013-05-28 13:32:00,
2013-05-28 06:42:00,48.0,46.0,-100.00,West,270,1.0,3.0,92,-99.99,,,-99.99,,2013-05-28 13:42:00,
2013-05-28 06:52:00,48.0,46.0,-100.00,North,-999,0.0,0.0,92,-99.99,,,-99.99,,2013-05-28 13:52:00,
2013-05-28 07:01:00,48.0,46.0,-100.00,SW,225,1.0,3.0,92,-99.99,,,-99.99,,2013-05-28 14:01:00,
2013-05-28 07:11:00,48.0,46.0,-100.00,SW,225,1.0,3.0,92,-99.99,,,-99.99,,2013-05-28 14:11:00,
2013-05-28 07:21:00,48.0,46.0,-100.00,West,270,2.0,3.0,92,-99.99,,,-99.99,,2013-05-28 14:21:00,
2013-05-28 07:32:00,48.0,46.0,-100.00,North,-999,0.0,0.0,92,-99.99,,,-99.99,,2013-05-28 14:32:00,
2013-05-28 07:41:00,48.0,46.0,-100.00,North,-999,0.0,0.0,92,-99.99,,,-99.99,,2013-05-28 14:41:00,
2013-05-28 07:52:00,49.0,46.0,-100.00,North,-999,0.0,0.0,92,-99.99,,,-99.99,,2013-05-28 14:52:00,
2013-05-28 08:01:00,49.0,46.0,-100.00,North,-999,0.0,0.0,92,-99.99,,,-99.99,,2013-05-28 15:01:00,
2013-05-28 08:11:00,49.0,46.0,-100.00,North,-999,0.0,0.0,92,-99.99,,,-99.99,,2013-05-28 15:11:00,
2013-05-28 08:21:00,49.0,47.0,-100.00,SW,225,3.0,5.0,92,-99.99,,,-99.99,,2013-05-28 15:21:00,
2013-05-28 08:32:00,49.0,46.0,-100.00,West,270,3.0,5.0,92,-99.99,,,-99.99,,2013-05-28 15:32:00,
2013-05-28 08:43:00,49.0,46.0,-100.00,West,270,3.0,7.0,92,-99.99,,,-99.99,,2013-05-28 15:43:00,
2013-05-28 08:53:00,49.0,46.0,-100.00,West,270,3.0,7.0,92,-99.99,,,-99.99,,2013-05-28 15:53:00,
2013-05-28 09:03:00,48.0,46.0,-100.00,West,270,1.0,3.0,92,-99.99,,,-99.99,,2013-05-28 16:03:00,
2013-05-28 09:12:00,48.0,46.0,-100.00,West,270,1.0,3.0,92,-99.99,,,-99.99,,2013-05-28 16:12:00,
2013-05-28 09:22:00,49.0,46.0,-100.00,West,270,1.0,4.0,92,-99.99,,,-99.99,,2013-05-28 16:22:00,
2013-05-28 09:33:00,49.0,47.0,-100.00,West,270,1.0,1.0,91,-99.99,,,-99.99,,2013-05-28 16:33:00,
2013-05-28 09:42:00,49.0,47.0,-100.00,West,270,1.0,1.0,91,-99.99,,,-99.99,,2013-05-28 16:42:00,
2013-05-28 09:52:00,50.0,47.0,-100.00,West,270,3.0,5.0,91,-99.99,,,-99.99,,2013-05-28 16:52:00,
2013-05-28 10:02:00,50.0,47.0,-100.00,West,270,0.0,1.0,90,-99.99,,,-99.99,,2013-05-28 17:02:00,
2013-05-28 10:12:00,50.0,47.0,-100.00,West,270,0.0,1.0,90,-99.99,,,-99.99,,2013-05-28 17:12:00,
2013-05-28 10:22:00,50.0,47.0,-100.00,West,270,3.0,6.0,88,-99.99,,,-99.99,,2013-05-28 17:22:00,
2013-05-28 10:32:00,51.0,47.0,-100.00,SW,225,3.0,4.0,86,-99.99,,,-99.99,,2013-05-28 17:32:00,
2013-05-28 10:41:00,51.0,47.0,-100.00,SW,225,3.0,4.0,86,-99.99,,,-99.99,,2013-05-28 17:41:00,
2013-05-28 10:52:00,51.0,47.0,-100.00,West,270,1.0,2.0,86,-99.99,,,-99.99,,2013-05-28 17:52:00,
2013-05-28 11:01:00,51.0,47.0,-100.00,SW,225,1.0,1.0,86,-99.99,,,-99.99,,2013-05-28 18:01:00,
2013-05-28 11:11:00,51.0,47.0,-100.00,SW,225,1.0,1.0,86,-99.99,,,-99.99,,2013-05-28 18:11:00,
2013-05-28 11:21:00,52.0,46.0,-100.00,West,270,3.0,6.0,81,-99.99,,,-99.99,,2013-05-28 18:21:00,
2013-05-28 11:32:00,53.0,46.0,-100.00,SW,225,3.0,6.0,78,-99.99,,,-99.99,,2013-05-28 18:32:00,
2013-05-28 11:42:00,53.0,46.0,-100.00,SW,225,3.0,6.0,78,-99.99,,,-99.99,,2013-05-28 18:42:00,
2013-05-28 11:52:00,54.0,46.0,-100.00,SW,225,3.0,5.0,74,-99.99,,,-99.99,,2013-05-28 18:52:00,
2013-05-28 12:01:00,54.0,45.0,-100.00,West,270,3.0,5.0,71,-99.99,,,-99.99,,2013-05-28 19:01:00,
2013-05-28 12:11:00,54.0,45.0,-100.00,West,270,3.0,5.0,71,-99.99,,,-99.99,,2013-05-28 19:11:00,
2013-05-28 12:21:00,53.0,45.0,-100.00,West,270,2.0,4.0,75,-99.99,,,-99.99,,2013-05-28 19:21:00,
2013-05-28 12:32:00,54.0,47.0,-100.00,West,270,1.0,3.0,80,-99.99,,,-99.99,,2013-05-28 19:32:00,
2013-05-28 12:41:00,53.0,46.0,-100.00,SW,225,3.0,4.0,79,-99.99,,,-99.99,,2013-05-28 19:41:00,
2013-05-28 12:52:00,53.0,46.0,-100.00,SW,225,3.0,4.0,79,-99.99,,,-99.99,,2013-05-28 19:52:00,
2013-05-28 13:01:00,52.0,46.0,-100.00,West,270,3.0,8.0,80,-99.99,,,-99.99,,2013-05-28 20:01:00,
2013-05-28 13:11:00,52.0,46.0,-100.00,West,270,3.0,8.0,80,-99.99,,,-99.99,,2013-05-28 20:11:00,
2013-05-28 13:22:00,54.0,46.0,-100.00,West,270,2.0,4.0,75,-99.99,,,-99.99,,2013-05-28 20:22:00,
2013-05-28 13:32:00,54.0,45.0,-100.00,West,270,4.0,8.0,74,-99.99,,,-99.99,,2013-05-28 20:32:00,
2013-05-28 13:42:00,54.0,45.0,-100.00,West,270,4.0,8.0,74,-99.99,,,-99.99,,2013-05-28 20:42:00,
2013-05-28 13:52:00,53.0,45.0,-100.00,West,270,2.0,4.0,74,-99.99,,,-99.99,,2013-05-28 20:52:00,
2013-05-28 14:01:00,54.0,44.0,-100.00,SW,225,4.0,6.0,71,-99.99,,,-99.99,,2013-05-28 21:01:00,
2013-05-28 14:11:00,54.0,44.0,-100.00,SW,225,4.0,6.0,71,-99.99,,,-99.99,,2013-05-28 21:11:00,
2013-05-28 14:21:00,54.0,44.0,-100.00,SW,225,3.0,5.0,69,-99.99,,,-99.99,,2013-05-28 21:21:00,
2013-05-28 14:33:00,54.0,43.0,-100.00,West,270,2.0,3.0,65,-99.99,,,-99.99,,2013-05-28 21:33:00,
2013-05-28 14:43:00,54.0,43.0,-100.00,West,270,2.0,3.0,65,-99.99,,,-99.99,,2013-05-28 21:43:00,
2013-05-28 14:53:00,55.0,43.0,-100.00,West,270,2.0,3.0,65,-99.99,,,-99.99,,2013-05-28 21:53:00,
2013-05-28 15:02:00,55.0,43.0,-100.00,West,270,1.0,3.0,65,-99.99,,,-99.99,,2013-05-28 22:02:00,
2013-05-28 15:12:00,55.0,43.0,-100.00,West,270,1.0,3.0,65,-99.99,,,-99.99,,2013-05-28 22:12:00,
2013-05-28 15:22:00,56.0,43.0,-100.00,SW,225,2.0,4.0,63,-99.99,,,-99.99,,2013-05-28 22:22:00,
2013-05-28 15:32:00,55.0,41.0,-100.00,SW,225,3.0,4.0,59,-99.99,,,-99.99,,2013-05-28 22:32:00,
2013-05-28 16:02:00,56.0,41.0,-100.00,West,270,3.0,4.0,58,-99.99,,,-99.99,,2013-05-28 23:02:00,
2013-05-28 16:21:00,55.0,41.0,-100.00,SW,225,0.0,1.0,59,-99.99,,,-99.99,,2013-05-28 23:21:00,
2013-05-28 16:32:00,55.0,40.0,-100.00,SW,225,4.0,7.0,57,-99.99,,,-99.99,,2013-05-28 23:32:00,
2013-05-28 16:52:00,56.0,41.0,-100.00,North,0,1.0,3.0,57,-99.99,,,-99.99,,2013-05-28 23:52:00,
2013-05-28 17:02:00,56.0,41.0,-100.00,SW,225,1.0,1.0,58,-99.99,,,-99.99,,2013-05-29 00:02:00,
2013-05-28 17:11:00,56.0,41.0,-100.00,SW,225,1.0,1.0,58,-99.99,,,-99.99,,2013-05-29 00:11:00,
2013-05-28 17:21:00,56.0,41.0,-100.00,West,270,3.0,5.0,57,-99.99,,,-99.99,,2013-05-29 00:21:00,
2013-05-28 17:32:00,55.0,40.0,-100.00,West,270,4.0,5.0,56,-99.99,,,-99.99,,2013-05-29 00:32:00,
2013-05-28 17:41:00,55.0,40.0,-100.00,West,270,4.0,5.0,56,-99.99,,,-99.99,,2013-05-29 00:41:00,
2013-05-28 17:52:00,55.0,41.0,-100.00,SW,225,3.0,5.0,59,-99.99,,,-99.99,,2013-05-29 00:52:00,
2013-05-28 18:01:00,55.0,41.0,-100.00,SW,225,3.0,4.0,60,-99.99,,,-99.99,,2013-05-29 01:01:00,
2013-05-28 18:11:00,55.0,41.0,-100.00,SW,225,3.0,4.0,60,-99.99,,,-99.99,,2013-05-29 01:11:00,
2013-05-28 18:22:00,54.0,41.0,-100.00,West,270,3.0,6.0,62,-99.99,,,-99.99,,2013-05-29 01:22:00,
2013-05-28 18:32:00,54.0,42.0,-100.00,North,-999,0.0,0.0,64,-99.99,,,-99.99,,2013-05-29 01:32:00,
2013-05-28 18:41:00,55.0,41.0,-100.00,West,270,0.0,1.0,60,-99.99,,,-99.99,,2013-05-29 01:41:00,
2013-05-28 18:52:00,55.0,41.0,-100.00,West,270,1.0,3.0,59,-99.99,,,-99.99,,2013-05-29 01:52:00,
2013-05-28 19:02:00,55.0,41.0,-100.00,West,270,1.0,3.0,59,-99.99,,,-99.99,,2013-05-29 02:02:00,
2013-05-28 19:12:00,55.0,41.0,-100.00,West,270,1.0,3.0,59,-99.99,,,-99.99,,2013-05-29 02:12:00,
2013-05-28 19:21:00,55.0,40.0,-100.00,West,270,2.0,3.0,58,-99.99,,,-99.99,,2013-05-29 02:21:00,
2013-05-28 19:31:00,54.0,41.0,-100.00,North,-999,0.0,0.0,62,-99.99,,,-99.99,,2013-05-29 02:31:00,
2013-05-28 19:42:00,54.0,41.0,-100.00,North,-999,0.0,0.0,62,-99.99,,,-99.99,,2013-05-29 02:42:00,
2013-05-28 19:52:00,53.0,42.0,-100.00,West,270,0.0,1.0,65,-99.99,,,-99.99,,2013-05-29 02:52:00,
2013-05-28 20:01:00,53.0,42.0,-100.00,North,-999,0.0,0.0,67,-99.99,,,-99.99,,2013-05-29 03:01:00,
2013-05-28 20:11:00,53.0,42.0,-100.00,North,-999,0.0,0.0,67,-99.99,,,-99.99,,2013-05-29 03:11:00,
2013-05-28 20:21:00,53.0,43.0,-100.00,North,-999,0.0,0.0,70,-99.99,,,-99.99,,2013-05-29 03:21:00,
2013-05-28 20:33:00,52.0,44.0,-100.00,North,-999,0.0,0.0,72,-99.99,,,-99.99,,2013-05-29 03:33:00,
2013-05-28 20:43:00,52.0,44.0,-100.00,North,-999,0.0,0.0,72,-99.99,,,-99.99,,2013-05-29 03:43:00,
2013-05-28 20:53:00,52.0,45.0,-100.00,North,-999,0.0,0.0,76,-99.99,,,-99.99,,2013-05-29 03:53:00,
2013-05-28 21:02:00,52.0,45.0,-100.00,North,-999,0.0,0.0,78,-99.99,,,-99.99,,2013-05-29 04:02:00,
2013-05-28 21:12:00,52.0,45.0,-100.00,North,-999,0.0,0.0,78,-99.99,,,-99.99,,2013-05-29 04:12:00,
2013-05-28 21:23:00,51.0,45.0,-100.00,North,-999,0.0,0.0,80,-99.99,,,-99.99,,2013-05-29 04:23:00,
2013-05-28 21:33:00,51.0,46.0,-100.00,North,-999,0.0,0.0,83,-99.99,,,-99.99,,2013-05-29 04:33:00,
2013-05-28 21:42:00,51.0,46.0,-100.00,North,-999,0.0,0.0,83,-99.99,,,-99.99,,2013-05-29 04:42:00,
2013-05-28 21:52:00,50.0,46.0,-100.00,North,-999,0.0,0.0,85,-99.99,,,-99.99,,2013-05-29 04:52:00,
2013-05-28 22:02:00,50.0,46.0,-100.00,SE,135,1.0,1.0,86,-99.99,,,-99.99,,2013-05-29 05:02:00,
2013-05-28 22:12:00,50.0,46.0,-100.00,SE,135,1.0,1.0,86,-99.99,,,-99.99,,2013-05-29 05:12:00,
2013-05-28 22:22:00,50.0,46.0,-100.00,North,-999,0.0,0.0,87,-99.99,,,-99.99,,2013-05-29 05:22:00,
2013-05-28 22:32:00,49.0,46.0,-100.00,North,-999,0.0,0.0,88,-99.99,,,-99.99,,2013-05-29 05:32:00,
2013-05-28 22:42:00,49.0,46.0,-100.00,North,-999,0.0,0.0,88,-99.99,,,-99.99,,2013-05-29 05:42:00,
2013-05-28 22:52:00,49.0,46.0,-100.00,North,-999,0.0,0.0,89,-99.99,,,-99.99,,2013-05-29 05:52:00,
2013-05-28 23:01:00,49.0,46.0,-100.00,North,-999,0.0,0.0,89,-99.99,,,-99.99,,2013-05-29 06:01:00,
2013-05-28 23:11:00,49.0,46.0,-100.00,North,-999,0.0,0.0,89,-99.99,,,-99.99,,2013-05-29 06:11:00,
2013-05-28 23:21:00,49.0,46.0,-100.00,North,-999,0.0,0.0,90,-99.99,,,-99.99,,2013-05-29 06:21:00,
2013-05-28 23:31:00,49.0,46.0,-100.00,North,-999,0.0,0.0,90,-99.99,,,-99.99,,2013-05-29 06:31:00,
2013-05-28 23:42:00,49.0,46.0,-100.00,North,-999,0.0,0.0,90,-99.99,,,-99.99,,2013-05-29 06:42:00,
2013-05-28 23:52:00,48.0,46.0,-100.00,North,-999,0.0,0.0,90,-99.99,,,-99.99,,2013-05-29 06:52:00,